KAPA/APA METAR and TAF weather

Enter ICAO airport designator
Station Type Date Time Source
KAPA METAR 2021/04/13 22:53 UTC NOAA

KAPA 132253Z 36013KT 10SM FEW070 SCT140 BKN200 07/M07 A3006 RMK AO2 SLP189 T00671072


Station Type Date Time Source
KAPA Decoded METAR 2021/04/13 22:53 UTC NOAA

DENVER CENTENNIAL AIRPORT, CO, United States (KAPA) 39-34N 104-51W 1775M
Apr 13, 2021 - 06:53 PM EDT / 2021.04.13 2253 UTC
Wind: from the N (360 degrees) at 15 MPH (13 KT):0
Visibility: 10 mile(s):0
Sky conditions: mostly cloudy
Temperature: 44.1 F (6.7 C)
Dew Point: 19.0 F (-7.2 C)
Relative Humidity: 36%
Pressure (altimeter): 30.06 in. Hg (1017 hPa)
ob: KAPA 132253Z 36013KT 10SM FEW070 SCT140 BKN200 07/M07 A3006 RMK AO2 SLP189 T00671072
cycle: 23

Station Type Date Time Source
KAPA TAF 2021/04/13 21:42 UTC NOAA

TAF
AMD KAPA 132038Z 1321/1418 34011G19KT P6SM FEW050 SCT150 BKN200
FM140000 33009KT P6SM SCT030 BKN050 OVC120
FM140300 32007KT 3SM -SN BR SCT007 OVC015
TEMPO 1403/1407 1SM -SN BR OVC007
FM140700 13006KT 2SM -SN BR BKN008 OVC020
FM141500 12007KT P6SM VCSH SCT015 BKN030

Example: see airport list